Finsterwalde/Heinrichsruh Airport


Codes: EDAS/
Name: Finsterwalde/Heinrichsruh Airport
City: Finsterwalde
Country: Germany
Elevation: 384 ft.

Photos at Finsterwalde/Heinrichsruh Airport


   Photos courtesy of SpottingLog. You can add your own sightings and photos by signing up for a free trial today.



No photos found.

Weather at Finsterwalde/Heinrichsruh Airport


Time (UTC)DescriptionTempratureWindCloud coverageVisibilityPressureHumidity
17-Jun-2024 06:00Broken Clouds16°C7 mph, SW79%10000m1013hPa76%
17-Jun-2024 09:00Light Rain18°C13 mph, SW86%10000m1013hPa72%
17-Jun-2024 12:00Light Rain17°C9 mph, SW92%10000m1014hPa79%
17-Jun-2024 15:00Overcast Clouds23°C11 mph, SW99%10000m1013hPa52%
17-Jun-2024 18:00Broken Clouds21°C7 mph, SW79%10000m1014hPa68%
17-Jun-2024 21:00Overcast Clouds17°C4 mph, SW100%10000m1015hPa89%
18-Jun-2024 00:00Overcast Clouds15°C4 mph, SW100%10000m1016hPa96%
18-Jun-2024 03:00Overcast Clouds15°C4 mph, SW87%10000m1016hPa95%
18-Jun-2024 06:00Broken Clouds19°C4 mph, SW82%10000m1017hPa76%
18-Jun-2024 09:00Overcast Clouds24°C7 mph, SW96%10000m1016hPa55%
18-Jun-2024 12:00Overcast Clouds26°C7 mph, SW88%10000m1015hPa45%
18-Jun-2024 15:00Broken Clouds27°C7 mph, SW58%10000m1014hPa43%
18-Jun-2024 18:00Broken Clouds24°C4 mph, SE77%10000m1011hPa62%
18-Jun-2024 21:00Moderate Rain18°C9 mph, N100%10000m1011hPa95%
19-Jun-2024 00:00Light Rain17°C2 mph, W100%10000m1011hPa97%
19-Jun-2024 03:00Broken Clouds16°C7 mph, W71%10000m1012hPa98%
19-Jun-2024 06:00Overcast Clouds16°C7 mph, NW85%10000m1014hPa94%
19-Jun-2024 09:00Light Rain16°C9 mph, NW100%10000m1016hPa85%
19-Jun-2024 12:00Overcast Clouds15°C9 mph, NW100%10000m1018hPa86%
19-Jun-2024 15:00Broken Clouds20°C9 mph, W80%10000m1018hPa56%
19-Jun-2024 18:00Broken Clouds19°C11 mph, W59%10000m1018hPa58%
19-Jun-2024 21:00Broken Clouds13°C4 mph, NW67%10000m1021hPa72%
20-Jun-2024 00:00Scattered Clouds10°C4 mph, NW43%10000m1023hPa80%
20-Jun-2024 03:00Clear Sky8°C4 mph, NW6%10000m1023hPa84%
20-Jun-2024 06:00Clear Sky13°C4 mph, W5%10000m1024hPa60%
20-Jun-2024 09:00Few Clouds19°C2 mph, NW15%10000m1023hPa42%
20-Jun-2024 12:00Broken Clouds23°C2 mph, SW54%10000m1022hPa36%
20-Jun-2024 15:00Broken Clouds23°C2 mph, E74%10000m1021hPa34%
20-Jun-2024 18:00Overcast Clouds20°C4 mph, E88%10000m1020hPa53%
20-Jun-2024 21:00Broken Clouds16°C7 mph, E77%10000m1019hPa64%
21-Jun-2024 00:00Broken Clouds16°C7 mph, E84%10000m1017hPa61%
21-Jun-2024 03:00Broken Clouds15°C4 mph, E76%10000m1016hPa65%
21-Jun-2024 06:00Broken Clouds19°C9 mph, E68%10000m1015hPa58%
21-Jun-2024 09:00Overcast Clouds24°C11 mph, E100%10000m1013hPa47%
21-Jun-2024 12:00Overcast Clouds30°C11 mph, SE100%10000m1010hPa40%
21-Jun-2024 15:00Overcast Clouds31°C9 mph, S100%10000m1008hPa43%
21-Jun-2024 18:00Light Rain25°C11 mph, W100%10000m1007hPa72%
21-Jun-2024 21:00Heavy Intensity Rain18°C13 mph, W100%2844m1007hPa97%
22-Jun-2024 00:00Heavy Intensity Rain17°C13 mph, SW100%5503m1010hPa97%
22-Jun-2024 03:00Light Rain16°C11 mph, W100%10000m1012hPa93%